sensor_id;sensor_type;location;lat;lon;timestamp;temperature;humidity
64468;DHT22;50853;46.836;16.820;2022-10-20T00:05:43;9.30;73.80
64468;DHT22;50853;46.836;16.820;2022-10-20T00:08:08;9.20;73.80
64468;DHT22;50853;46.836;16.820;2022-10-20T00:10:34;9.20;73.80
64468;DHT22;50853;46.836;16.820;2022-10-20T00:13:00;9.20;73.30
64468;DHT22;50853;46.836;16.820;2022-10-20T00:15:26;9.20;73.60
64468;DHT22;50853;46.836;16.820;2022-10-20T00:17:53;9.10;73.60
64468;DHT22;50853;46.836;16.820;2022-10-20T00:20:19;9.10;73.50
64468;DHT22;50853;46.836;16.820;2022-10-20T00:22:44;9.10;73.70
64468;DHT22;50853;46.836;16.820;2022-10-20T00:25:10;9.00;72.70
64468;DHT22;50853;46.836;16.820;2022-10-20T00:27:36;9.00;72.40
64468;DHT22;50853;46.836;16.820;2022-10-20T00:30:03;9.00;72.10
64468;DHT22;50853;46.836;16.820;2022-10-20T00:32:29;9.00;72.70
64468;DHT22;50853;46.836;16.820;2022-10-20T00:34:55;8.90;72.80
64468;DHT22;50853;46.836;16.820;2022-10-20T00:37:21;8.90;73.10
64468;DHT22;50853;46.836;16.820;2022-10-20T00:39:47;8.90;73.40
64468;DHT22;50853;46.836;16.820;2022-10-20T00:42:15;8.90;73.80
64468;DHT22;50853;46.836;16.820;2022-10-20T00:44:53;8.90;74.10
64468;DHT22;50853;46.836;16.820;2022-10-20T00:47:42;8.90;74.70
64468;DHT22;50853;46.836;16.820;2022-10-20T00:50:26;8.90;73.90
64468;DHT22;50853;46.836;16.820;2022-10-20T00:52:55;8.90;74.60
64468;DHT22;50853;46.836;16.820;2022-10-20T00:55:48;8.90;74.50
64468;DHT22;50853;46.836;16.820;2022-10-20T00:58:15;8.90;75.30
64468;DHT22;50853;46.836;16.820;2022-10-20T01:00:43;9.00;75.80
64468;DHT22;50853;46.836;16.820;2022-10-20T01:03:16;8.90;75.50
64468;DHT22;50853;46.836;16.820;2022-10-20T01:05:44;8.90;75.30
64468;DHT22;50853;46.836;16.820;2022-10-20T01:08:10;9.00;75.90
64468;DHT22;50853;46.836;16.820;2022-10-20T01:30:57;9.10;77.90
64468;DHT22;50853;46.836;16.820;2022-10-20T01:33:53;9.10;76.70
64468;DHT22;50853;46.836;16.820;2022-10-20T01:36:28;9.10;77.20
64468;DHT22;50853;46.836;16.820;2022-10-20T01:39:07;9.10;77.50
64468;DHT22;50853;46.836;16.820;2022-10-20T01:41:42;9.10;75.90
64468;DHT22;50853;46.836;16.820;2022-10-20T01:44:13;9.10;75.60
64468;DHT22;50853;46.836;16.820;2022-10-20T01:46:42;9.20;77.30
64468;DHT22;50853;46.836;16.820;2022-10-20T01:49:10;9.20;77.60
64468;DHT22;50853;46.836;16.820;2022-10-20T01:51:36;9.20;77.00
64468;DHT22;50853;46.836;16.820;2022-10-20T01:54:02;9.20;77.60
64468;DHT22;50853;46.836;16.820;2022-10-20T01:56:36;9.20;76.70
64468;DHT22;50853;46.836;16.820;2022-10-20T01:59:28;9.20;75.70
64468;DHT22;50853;46.836;16.820;2022-10-20T02:02:28;9.20;76.90
64468;DHT22;50853;46.836;16.820;2022-10-20T02:07:27;9.30;77.40
64468;DHT22;50853;46.836;16.820;2022-10-20T02:10:02;9.20;77.50
64468;DHT22;50853;46.836;16.820;2022-10-20T02:12:34;9.30;76.80
64468;DHT22;50853;46.836;16.820;2022-10-20T02:15:03;9.30;77.30
64468;DHT22;50853;46.836;16.820;2022-10-20T02:17:32;9.30;77.20
64468;DHT22;50853;46.836;16.820;2022-10-20T02:19:59;9.30;76.40
64468;DHT22;50853;46.836;16.820;2022-10-20T02:22:26;9.20;76.50
64468;DHT22;50853;46.836;16.820;2022-10-20T02:24:52;9.20;75.90
64468;DHT22;50853;46.836;16.820;2022-10-20T02:27:34;9.20;76.20
64468;DHT22;50853;46.836;16.820;2022-10-20T02:30:05;9.20;75.20
64468;DHT22;50853;46.836;16.820;2022-10-20T02:32:33;9.20;74.60
64468;DHT22;50853;46.836;16.820;2022-10-20T02:35:02;9.10;74.00
64468;DHT22;50853;46.836;16.820;2022-10-20T02:37:28;9.10;73.60
64468;DHT22;50853;46.836;16.820;2022-10-20T02:39:54;9.10;74.30
64468;DHT22;50853;46.836;16.820;2022-10-20T02:42:19;9.00;75.30
64468;DHT22;50853;46.836;16.820;2022-10-20T02:44:45;8.90;76.90
64468;DHT22;50853;46.836;16.820;2022-10-20T02:47:11;8.90;76.30
64468;DHT22;50853;46.836;16.820;2022-10-20T02:49:37;8.80;75.90
64468;DHT22;50853;46.836;16.820;2022-10-20T02:52:03;8.80;76.10
64468;DHT22;50853;46.836;16.820;2022-10-20T02:54:29;8.80;75.90
64468;DHT22;50853;46.836;16.820;2022-10-20T02:56:55;8.80;76.60
64468;DHT22;50853;46.836;16.820;2022-10-20T02:59:21;8.80;76.30
64468;DHT22;50853;46.836;16.820;2022-10-20T03:01:47;8.80;76.40
64468;DHT22;50853;46.836;16.820;2022-10-20T03:04:13;8.80;75.90
64468;DHT22;50853;46.836;16.820;2022-10-20T03:06:40;8.70;76.20
64468;DHT22;50853;46.836;16.820;2022-10-20T03:09:06;8.70;75.80
64468;DHT22;50853;46.836;16.820;2022-10-20T03:11:32;8.70;76.10
64468;DHT22;50853;46.836;16.820;2022-10-20T03:13:58;8.70;75.70
64468;DHT22;50853;46.836;16.820;2022-10-20T03:16:24;8.70;76.30
64468;DHT22;50853;46.836;16.820;2022-10-20T03:18:50;8.70;76.60
64468;DHT22;50853;46.836;16.820;2022-10-20T03:21:16;8.70;76.60
64468;DHT22;50853;46.836;16.820;2022-10-20T03:23:42;8.70;77.20
64468;DHT22;50853;46.836;16.820;2022-10-20T03:26:10;8.70;77.50
64468;DHT22;50853;46.836;16.820;2022-10-20T03:28:36;8.70;76.80
64468;DHT22;50853;46.836;16.820;2022-10-20T03:31:02;8.70;76.50
64468;DHT22;50853;46.836;16.820;2022-10-20T03:33:29;8.70;76.80
64468;DHT22;50853;46.836;16.820;2022-10-20T03:35:55;8.60;77.40
64468;DHT22;50853;46.836;16.820;2022-10-20T03:38:22;8.60;77.60
64468;DHT22;50853;46.836;16.820;2022-10-20T03:40:48;8.60;78.10
64468;DHT22;50853;46.836;16.820;2022-10-20T03:43:13;8.60;77.90
64468;DHT22;50853;46.836;16.820;2022-10-20T03:45:43;8.60;77.80
64468;DHT22;50853;46.836;16.820;2022-10-20T03:48:10;8.50;77.60
64468;DHT22;50853;46.836;16.820;2022-10-20T03:50:38;8.50;77.20
64468;DHT22;50853;46.836;16.820;2022-10-20T03:53:05;8.50;77.40
64468;DHT22;50853;46.836;16.820;2022-10-20T03:55:31;8.40;77.50
64468;DHT22;50853;46.836;16.820;2022-10-20T03:57:57;8.40;76.90
64468;DHT22;50853;46.836;16.820;2022-10-20T04:00:23;8.30;77.20
64468;DHT22;50853;46.836;16.820;2022-10-20T04:02:49;8.30;77.20
64468;DHT22;50853;46.836;16.820;2022-10-20T04:05:19;8.30;77.30
64468;DHT22;50853;46.836;16.820;2022-10-20T04:07:45;8.20;76.90
64468;DHT22;50853;46.836;16.820;2022-10-20T04:10:13;8.20;76.60
64468;DHT22;50853;46.836;16.820;2022-10-20T04:12:40;8.10;76.90
64468;DHT22;50853;46.836;16.820;2022-10-20T04:15:07;8.10;76.70
64468;DHT22;50853;46.836;16.820;2022-10-20T04:17:33;8.10;76.50
64468;DHT22;50853;46.836;16.820;2022-10-20T04:19:59;8.00;76.60
64468;DHT22;50853;46.836;16.820;2022-10-20T04:22:25;8.00;76.40
64468;DHT22;50853;46.836;16.820;2022-10-20T04:24:50;8.00;76.90
64468;DHT22;50853;46.836;16.820;2022-10-20T04:27:16;8.00;76.40
64468;DHT22;50853;46.836;16.820;2022-10-20T04:29:42;7.90;77.10
64468;DHT22;50853;46.836;16.820;2022-10-20T04:32:08;7.90;77.60
64468;DHT22;50853;46.836;16.820;2022-10-20T04:34:34;7.80;78.90
64468;DHT22;50853;46.836;16.820;2022-10-20T04:37:01;7.70;78.30
64468;DHT22;50853;46.836;16.820;2022-10-20T04:39:27;7.80;77.00
64468;DHT22;50853;46.836;16.820;2022-10-20T04:41:53;7.80;77.60
64468;DHT22;50853;46.836;16.820;2022-10-20T04:44:18;7.70;78.90
64468;DHT22;50853;46.836;16.820;2022-10-20T04:46:44;7.70;78.40
64468;DHT22;50853;46.836;16.820;2022-10-20T04:49:10;7.70;78.40
64468;DHT22;50853;46.836;16.820;2022-10-20T04:51:36;7.60;79.30
64468;DHT22;50853;46.836;16.820;2022-10-20T04:54:02;7.60;80.10
64468;DHT22;50853;46.836;16.820;2022-10-20T04:56:28;7.60;80.30
64468;DHT22;50853;46.836;16.820;2022-10-20T04:58:56;7.50;80.50
64468;DHT22;50853;46.836;16.820;2022-10-20T05:01:27;7.50;80.30
64468;DHT22;50853;46.836;16.820;2022-10-20T05:03:54;7.50;80.60
64468;DHT22;50853;46.836;16.820;2022-10-20T05:06:31;7.40;80.70
64468;DHT22;50853;46.836;16.820;2022-10-20T05:09:00;7.50;79.60
64468;DHT22;50853;46.836;16.820;2022-10-20T05:11:28;7.40;80.50
64468;DHT22;50853;46.836;16.820;2022-10-20T05:13:55;7.40;80.80
64468;DHT22;50853;46.836;16.820;2022-10-20T05:16:21;7.40;79.70
64468;DHT22;50853;46.836;16.820;2022-10-20T05:18:47;7.40;80.60
64468;DHT22;50853;46.836;16.820;2022-10-20T05:21:17;7.40;81.30
64468;DHT22;50853;46.836;16.820;2022-10-20T05:23:44;7.40;80.60
64468;DHT22;50853;46.836;16.820;2022-10-20T05:26:16;7.50;80.80
64468;DHT22;50853;46.836;16.820;2022-10-20T05:28:47;7.50;79.90
64468;DHT22;50853;46.836;16.820;2022-10-20T05:31:14;7.50;79.30
64468;DHT22;50853;46.836;16.820;2022-10-20T05:33:44;7.50;79.80
64468;DHT22;50853;46.836;16.820;2022-10-20T05:36:12;7.60;81.80
64468;DHT22;50853;46.836;16.820;2022-10-20T05:38:39;7.70;83.30
64468;DHT22;50853;46.836;16.820;2022-10-20T05:41:13;7.70;81.80
64468;DHT22;50853;46.836;16.820;2022-10-20T05:43:39;7.80;81.40
64468;DHT22;50853;46.836;16.820;2022-10-20T05:46:06;7.80;80.70
64468;DHT22;50853;46.836;16.820;2022-10-20T05:48:32;7.90;80.40
64468;DHT22;50853;46.836;16.820;2022-10-20T05:51:13;7.90;81.00
64468;DHT22;50853;46.836;16.820;2022-10-20T05:53:40;7.90;81.80
64468;DHT22;50853;46.836;16.820;2022-10-20T05:56:07;7.90;83.40
64468;DHT22;50853;46.836;16.820;2022-10-20T05:58:34;7.90;85.30
64468;DHT22;50853;46.836;16.820;2022-10-20T06:01:16;8.00;84.90
64468;DHT22;50853;46.836;16.820;2022-10-20T06:06:13;8.00;81.70
64468;DHT22;50853;46.836;16.820;2022-10-20T06:08:39;8.00;83.00
64468;DHT22;50853;46.836;16.820;2022-10-20T06:11:10;8.10;83.10
64468;DHT22;50853;46.836;16.820;2022-10-20T06:13:36;8.30;83.70
64468;DHT22;50853;46.836;16.820;2022-10-20T06:16:04;8.50;83.40
64468;DHT22;50853;46.836;16.820;2022-10-20T06:18:32;8.70;83.30
64468;DHT22;50853;46.836;16.820;2022-10-20T06:21:10;9.10;82.70
64468;DHT22;50853;46.836;16.820;2022-10-20T06:23:36;9.40;82.40
64468;DHT22;50853;46.836;16.820;2022-10-20T06:26:08;9.70;81.30
64468;DHT22;50853;46.836;16.820;2022-10-20T06:28:37;10.00;79.80
64468;DHT22;50853;46.836;16.820;2022-10-20T06:31:16;10.30;78.80
64468;DHT22;50853;46.836;16.820;2022-10-20T06:33:42;10.50;77.70
64468;DHT22;50853;46.836;16.820;2022-10-20T06:36:09;10.70;76.20
64468;DHT22;50853;46.836;16.820;2022-10-20T06:38:36;10.90;75.70
64468;DHT22;50853;46.836;16.820;2022-10-20T06:41:08;11.10;75.90
64468;DHT22;50853;46.836;16.820;2022-10-20T06:43:34;11.20;73.30
64468;DHT22;50853;46.836;16.820;2022-10-20T06:46:02;11.30;72.70
64468;DHT22;50853;46.836;16.820;2022-10-20T06:48:29;11.60;74.70
64468;DHT22;50853;46.836;16.820;2022-10-20T06:50:59;11.80;74.20
64468;DHT22;50853;46.836;16.820;2022-10-20T06:53:26;12.10;73.80
64468;DHT22;50853;46.836;16.820;2022-10-20T06:56:01;12.30;71.80
64468;DHT22;50853;46.836;16.820;2022-10-20T06:58:27;12.50;72.30
64468;DHT22;50853;46.836;16.820;2022-10-20T07:01:02;12.60;70.00
64468;DHT22;50853;46.836;16.820;2022-10-20T07:03:29;12.30;67.90
64468;DHT22;50853;46.836;16.820;2022-10-20T07:05:56;12.50;69.60
64468;DHT22;50853;46.836;16.820;2022-10-20T07:08:23;12.70;70.00
64468;DHT22;50853;46.836;16.820;2022-10-20T07:11:17;13.00;69.40
64468;DHT22;50853;46.836;16.820;2022-10-20T07:13:44;13.30;69.50
64468;DHT22;50853;46.836;16.820;2022-10-20T07:16:13;13.60;68.90
64468;DHT22;50853;46.836;16.820;2022-10-20T07:18:40;13.80;68.50
64468;DHT22;50853;46.836;16.820;2022-10-20T07:21:14;14.10;69.10
64468;DHT22;50853;46.836;16.820;2022-10-20T07:23:40;14.30;68.10
64468;DHT22;50853;46.836;16.820;2022-10-20T07:26:16;14.40;67.00
64468;DHT22;50853;46.836;16.820;2022-10-20T07:28:44;14.60;67.20
64468;DHT22;50853;46.836;16.820;2022-10-20T07:31:14;14.60;66.40
64468;DHT22;50853;46.836;16.820;2022-10-20T07:33:41;14.70;65.40
64468;DHT22;50853;46.836;16.820;2022-10-20T07:38:40;15.10;66.10
64468;DHT22;50853;46.836;16.820;2022-10-20T07:41:07;15.40;65.10
64468;DHT22;50853;46.836;16.820;2022-10-20T07:43:34;15.60;63.80
64468;DHT22;50853;46.836;16.820;2022-10-20T07:46:00;15.80;62.30
64468;DHT22;50853;46.836;16.820;2022-10-20T07:48:26;15.80;61.60
64468;DHT22;50853;46.836;16.820;2022-10-20T07:50:52;16.10;61.70
64468;DHT22;50853;46.836;16.820;2022-10-20T07:53:18;16.30;61.80
64468;DHT22;50853;46.836;16.820;2022-10-20T07:55:44;16.50;60.50
64468;DHT22;50853;46.836;16.820;2022-10-20T07:58:11;16.50;60.60
64468;DHT22;50853;46.836;16.820;2022-10-20T08:00:37;16.30;59.60
64468;DHT22;50853;46.836;16.820;2022-10-20T08:03:03;16.30;60.90
64468;DHT22;50853;46.836;16.820;2022-10-20T08:05:29;16.20;60.20
64468;DHT22;50853;46.836;16.820;2022-10-20T08:07:55;16.30;59.50
64468;DHT22;50853;46.836;16.820;2022-10-20T08:10:21;16.30;59.50
64468;DHT22;50853;46.836;16.820;2022-10-20T08:12:47;16.50;58.70
64468;DHT22;50853;46.836;16.820;2022-10-20T08:15:12;16.90;58.80
64468;DHT22;50853;46.836;16.820;2022-10-20T08:17:38;16.90;55.60
64468;DHT22;50853;46.836;16.820;2022-10-20T08:20:05;16.50;56.90
64468;DHT22;50853;46.836;16.820;2022-10-20T08:22:31;16.10;55.80
64468;DHT22;50853;46.836;16.820;2022-10-20T08:24:57;16.00;58.20
64468;DHT22;50853;46.836;16.820;2022-10-20T08:27:22;15.90;58.10
64468;DHT22;50853;46.836;16.820;2022-10-20T08:29:48;15.70;58.20
64468;DHT22;50853;46.836;16.820;2022-10-20T08:32:14;15.70;58.50
64468;DHT22;50853;46.836;16.820;2022-10-20T08:34:40;15.60;57.70
64468;DHT22;50853;46.836;16.820;2022-10-20T08:37:06;15.50;56.70
64468;DHT22;50853;46.836;16.820;2022-10-20T08:39:32;15.30;58.60
64468;DHT22;50853;46.836;16.820;2022-10-20T08:41:59;15.30;57.90
64468;DHT22;50853;46.836;16.820;2022-10-20T08:44:30;15.20;60.10
64468;DHT22;50853;46.836;16.820;2022-10-20T08:47:00;15.30;61.00
64468;DHT22;50853;46.836;16.820;2022-10-20T08:49:30;15.30;60.10
64468;DHT22;50853;46.836;16.820;2022-10-20T08:51:57;15.20;59.00
64468;DHT22;50853;46.836;16.820;2022-10-20T08:54:23;15.00;58.70
64468;DHT22;50853;46.836;16.820;2022-10-20T08:56:50;14.90;59.40
64468;DHT22;50853;46.836;16.820;2022-10-20T09:01:52;14.80;59.50
64468;DHT22;50853;46.836;16.820;2022-10-20T09:04:20;14.80;60.70
64468;DHT22;50853;46.836;16.820;2022-10-20T09:06:56;14.70;59.70
64468;DHT22;50853;46.836;16.820;2022-10-20T09:09:24;14.50;59.60
64468;DHT22;50853;46.836;16.820;2022-10-20T09:11:55;14.50;59.60
64468;DHT22;50853;46.836;16.820;2022-10-20T09:14:24;14.60;58.90
64468;DHT22;50853;46.836;16.820;2022-10-20T09:16:51;14.40;58.60
64468;DHT22;50853;46.836;16.820;2022-10-20T09:19:19;14.40;58.70
64468;DHT22;50853;46.836;16.820;2022-10-20T09:21:50;14.60;60.80
64468;DHT22;50853;46.836;16.820;2022-10-20T09:24:19;14.60;60.50
64468;DHT22;50853;46.836;16.820;2022-10-20T09:26:47;14.60;57.90
64468;DHT22;50853;46.836;16.820;2022-10-20T09:29:16;14.60;59.20
64468;DHT22;50853;46.836;16.820;2022-10-20T09:31:44;14.60;58.50
64468;DHT22;50853;46.836;16.820;2022-10-20T09:34:33;14.60;60.10
64468;DHT22;50853;46.836;16.820;2022-10-20T09:37:14;14.70;60.80
64468;DHT22;50853;46.836;16.820;2022-10-20T09:42:18;14.90;60.40
64468;DHT22;50853;46.836;16.820;2022-10-20T09:44:57;14.90;60.00
64468;DHT22;50853;46.836;16.820;2022-10-20T09:47:26;14.70;59.20
64468;DHT22;50853;46.836;16.820;2022-10-20T09:49:59;14.70;60.60
64468;DHT22;50853;46.836;16.820;2022-10-20T09:52:28;14.80;60.00
64468;DHT22;50853;46.836;16.820;2022-10-20T09:55:04;14.80;59.70
64468;DHT22;50853;46.836;16.820;2022-10-20T09:57:32;14.90;59.70
64468;DHT22;50853;46.836;16.820;2022-10-20T09:59:59;14.90;60.20
64468;DHT22;50853;46.836;16.820;2022-10-20T10:02:30;14.90;59.40
64468;DHT22;50853;46.836;16.820;2022-10-20T10:05:13;14.90;61.10
64468;DHT22;50853;46.836;16.820;2022-10-20T10:07:40;15.10;60.40
64468;DHT22;50853;46.836;16.820;2022-10-20T10:10:28;15.10;60.40
64468;DHT22;50853;46.836;16.820;2022-10-20T10:12:56;15.10;58.50
64468;DHT22;50853;46.836;16.820;2022-10-20T10:15:27;15.10;58.00
64468;DHT22;50853;46.836;16.820;2022-10-20T10:17:54;15.00;56.40
64468;DHT22;50853;46.836;16.820;2022-10-20T10:22:47;15.00;59.00
64468;DHT22;50853;46.836;16.820;2022-10-20T10:25:33;14.90;60.40
64468;DHT22;50853;46.836;16.820;2022-10-20T10:28:03;14.90;60.40
64468;DHT22;50853;46.836;16.820;2022-10-20T10:30:36;14.90;58.30
64468;DHT22;50853;46.836;16.820;2022-10-20T10:35:48;14.90;59.80
64468;DHT22;50853;46.836;16.820;2022-10-20T10:38:14;14.90;59.10
64468;DHT22;50853;46.836;16.820;2022-10-20T10:46:11;15.20;61.40
64468;DHT22;50853;46.836;16.820;2022-10-20T10:54:54;15.00;59.60
64468;DHT22;50853;46.836;16.820;2022-10-20T10:57:31;15.10;60.40
64468;DHT22;50853;46.836;16.820;2022-10-20T11:00:10;15.30;58.60
64468;DHT22;50853;46.836;16.820;2022-10-20T11:05:23;15.60;58.80
64468;DHT22;50853;46.836;16.820;2022-10-20T11:10:38;15.70;58.50
64468;DHT22;50853;46.836;16.820;2022-10-20T11:19:24;15.90;58.20
64468;DHT22;50853;46.836;16.820;2022-10-20T11:27:22;16.60;57.50
64468;DHT22;50853;46.836;16.820;2022-10-20T11:29:50;16.60;57.10
64468;DHT22;50853;46.836;16.820;2022-10-20T11:32:33;16.60;56.00
64468;DHT22;50853;46.836;16.820;2022-10-20T11:38:26;16.30;55.00
64468;DHT22;50853;46.836;16.820;2022-10-20T11:41:05;16.40;56.50
64468;DHT22;50853;46.836;16.820;2022-10-20T11:43:38;16.70;56.40
64468;DHT22;50853;46.836;16.820;2022-10-20T11:46:20;16.60;54.00
64468;DHT22;50853;46.836;16.820;2022-10-20T11:48:52;16.50;53.50
64468;DHT22;50853;46.836;16.820;2022-10-20T12:14:23;16.80;53.60
64468;DHT22;50853;46.836;16.820;2022-10-20T12:19:20;16.90;53.60
64468;DHT22;50853;46.836;16.820;2022-10-20T12:21:57;16.70;54.50
64468;DHT22;50853;46.836;16.820;2022-10-20T12:24:42;16.80;55.50
64468;DHT22;50853;46.836;16.820;2022-10-20T12:27:27;16.80;55.20
64468;DHT22;50853;46.836;16.820;2022-10-20T12:34:56;16.70;55.00
64468;DHT22;50853;46.836;16.820;2022-10-20T12:37:34;16.90;55.30
64468;DHT22;50853;46.836;16.820;2022-10-20T12:40:29;16.90;56.00
64468;DHT22;50853;46.836;16.820;2022-10-20T12:42:56;16.90;54.90
64468;DHT22;50853;46.836;16.820;2022-10-20T12:45:38;16.80;54.80
64468;DHT22;50853;46.836;16.820;2022-10-20T12:48:06;16.80;54.80
64468;DHT22;50853;46.836;16.820;2022-10-20T12:50:38;16.70;54.80
64468;DHT22;50853;46.836;16.820;2022-10-20T12:55:43;16.70;56.20
64468;DHT22;50853;46.836;16.820;2022-10-20T13:03:48;16.70;55.50
64468;DHT22;50853;46.836;16.820;2022-10-20T13:19:45;16.20;58.20
64468;DHT22;50853;46.836;16.820;2022-10-20T13:25:52;16.30;57.90
64468;DHT22;50853;46.836;16.820;2022-10-20T13:28:24;16.20;59.30
64468;DHT22;50853;46.836;16.820;2022-10-20T13:30:58;16.20;58.60
64468;DHT22;50853;46.836;16.820;2022-10-20T13:36:31;16.30;59.40
64468;DHT22;50853;46.836;16.820;2022-10-20T13:39:21;16.20;58.00
64468;DHT22;50853;46.836;16.820;2022-10-20T13:41:57;16.10;60.00
64468;DHT22;50853;46.836;16.820;2022-10-20T13:49:59;16.00;59.10
64468;DHT22;50853;46.836;16.820;2022-10-20T13:52:36;15.90;59.50
64468;DHT22;50853;46.836;16.820;2022-10-20T13:55:06;15.90;60.00
64468;DHT22;50853;46.836;16.820;2022-10-20T13:57:34;15.80;60.50
64468;DHT22;50853;46.836;16.820;2022-10-20T14:00:13;15.70;60.40
64468;DHT22;50853;46.836;16.820;2022-10-20T14:02:58;15.60;60.60
64468;DHT22;50853;46.836;16.820;2022-10-20T14:05:25;15.60;60.60
64468;DHT22;50853;46.836;16.820;2022-10-20T14:07:52;15.60;60.60
64468;DHT22;50853;46.836;16.820;2022-10-20T14:10:38;15.60;61.10
64468;DHT22;50853;46.836;16.820;2022-10-20T14:13:12;15.50;60.70
64468;DHT22;50853;46.836;16.820;2022-10-20T14:15:57;15.40;61.30
64468;DHT22;50853;46.836;16.820;2022-10-20T14:18:30;15.40;61.40
64468;DHT22;50853;46.836;16.820;2022-10-20T14:21:14;15.40;61.40
64468;DHT22;50853;46.836;16.820;2022-10-20T14:23:42;15.30;61.80
64468;DHT22;50853;46.836;16.820;2022-10-20T14:26:18;15.20;62.50
64468;DHT22;50853;46.836;16.820;2022-10-20T14:28:47;15.10;61.90
64468;DHT22;50853;46.836;16.820;2022-10-20T14:31:15;15.10;62.00
64468;DHT22;50853;46.836;16.820;2022-10-20T14:33:45;15.10;62.10
64468;DHT22;50853;46.836;16.820;2022-10-20T14:38:46;15.00;61.70
64468;DHT22;50853;46.836;16.820;2022-10-20T14:43:52;14.90;62.60
64468;DHT22;50853;46.836;16.820;2022-10-20T14:46:43;14.80;62.40
64468;DHT22;50853;46.836;16.820;2022-10-20T14:49:16;14.80;62.80
64468;DHT22;50853;46.836;16.820;2022-10-20T14:52:03;14.80;62.50
64468;DHT22;50853;46.836;16.820;2022-10-20T14:56:58;14.60;63.00
64468;DHT22;50853;46.836;16.820;2022-10-20T14:59:27;14.60;63.20
64468;DHT22;50853;46.836;16.820;2022-10-20T15:01:59;14.60;63.40
64468;DHT22;50853;46.836;16.820;2022-10-20T15:04:28;14.50;63.20
64468;DHT22;50853;46.836;16.820;2022-10-20T15:09:40;14.40;63.80
64468;DHT22;50853;46.836;16.820;2022-10-20T15:12:17;14.30;64.60
64468;DHT22;50853;46.836;16.820;2022-10-20T15:14:52;14.30;64.30
64468;DHT22;50853;46.836;16.820;2022-10-20T15:17:33;14.20;64.30
64468;DHT22;50853;46.836;16.820;2022-10-20T15:23:07;14.10;65.10
64468;DHT22;50853;46.836;16.820;2022-10-20T15:28:45;14.00;65.00
64468;DHT22;50853;46.836;16.820;2022-10-20T15:33:38;13.90;65.30
64468;DHT22;50853;46.836;16.820;2022-10-20T15:36:18;13.80;65.20
64468;DHT22;50853;46.836;16.820;2022-10-20T15:38:46;13.80;65.50
64468;DHT22;50853;46.836;16.820;2022-10-20T15:41:23;13.70;65.60
64468;DHT22;50853;46.836;16.820;2022-10-20T15:43:50;13.70;65.50
64468;DHT22;50853;46.836;16.820;2022-10-20T15:46:16;13.70;66.20
64468;DHT22;50853;46.836;16.820;2022-10-20T15:48:43;13.60;66.20
64468;DHT22;50853;46.836;16.820;2022-10-20T15:51:29;13.50;66.30
64468;DHT22;50853;46.836;16.820;2022-10-20T15:53:57;13.50;66.70
64468;DHT22;50853;46.836;16.820;2022-10-20T15:56:23;13.40;66.70
64468;DHT22;50853;46.836;16.820;2022-10-20T15:58:49;13.40;66.70
64468;DHT22;50853;46.836;16.820;2022-10-20T16:01:15;13.30;67.20
64468;DHT22;50853;46.836;16.820;2022-10-20T16:03:42;13.20;67.70
64468;DHT22;50853;46.836;16.820;2022-10-20T16:06:09;13.10;67.70
64468;DHT22;50853;46.836;16.820;2022-10-20T16:08:41;13.10;67.60
64468;DHT22;50853;46.836;16.820;2022-10-20T16:11:08;13.00;67.40
64468;DHT22;50853;46.836;16.820;2022-10-20T16:13:35;13.00;67.70
64468;DHT22;50853;46.836;16.820;2022-10-20T16:16:03;12.90;68.00
64468;DHT22;50853;46.836;16.820;2022-10-20T16:18:29;12.80;68.40
64468;DHT22;50853;46.836;16.820;2022-10-20T16:20:59;12.80;68.40
64468;DHT22;50853;46.836;16.820;2022-10-20T16:23:25;12.70;68.30
64468;DHT22;50853;46.836;16.820;2022-10-20T16:25:51;12.70;68.60
64468;DHT22;50853;46.836;16.820;2022-10-20T16:28:17;12.70;68.80
64468;DHT22;50853;46.836;16.820;2022-10-20T16:30:43;12.60;69.00
64468;DHT22;50853;46.836;16.820;2022-10-20T16:33:09;12.60;69.10
64468;DHT22;50853;46.836;16.820;2022-10-20T16:35:41;12.60;69.10
64468;DHT22;50853;46.836;16.820;2022-10-20T16:38:07;12.50;69.80
64468;DHT22;50853;46.836;16.820;2022-10-20T16:40:34;12.40;69.60
64468;DHT22;50853;46.836;16.820;2022-10-20T16:43:00;12.40;70.10
64468;DHT22;50853;46.836;16.820;2022-10-20T16:45:26;12.30;70.30
64468;DHT22;50853;46.836;16.820;2022-10-20T16:47:52;12.30;70.20
64468;DHT22;50853;46.836;16.820;2022-10-20T16:50:18;12.30;70.20
64468;DHT22;50853;46.836;16.820;2022-10-20T16:52:44;12.20;70.80
64468;DHT22;50853;46.836;16.820;2022-10-20T16:55:09;12.10;70.60
64468;DHT22;50853;46.836;16.820;2022-10-20T16:57:36;12.10;70.70
64468;DHT22;50853;46.836;16.820;2022-10-20T17:00:07;12.10;70.90
64468;DHT22;50853;46.836;16.820;2022-10-20T17:02:36;12.10;71.10
64468;DHT22;50853;46.836;16.820;2022-10-20T17:05:02;12.00;71.10
64468;DHT22;50853;46.836;16.820;2022-10-20T17:07:28;12.00;70.90
64468;DHT22;50853;46.836;16.820;2022-10-20T17:09:54;11.90;71.20
64468;DHT22;50853;46.836;16.820;2022-10-20T17:12:19;11.90;71.00
64468;DHT22;50853;46.836;16.820;2022-10-20T17:14:45;11.90;71.80
64468;DHT22;50853;46.836;16.820;2022-10-20T17:17:11;11.80;71.40
64468;DHT22;50853;46.836;16.820;2022-10-20T17:19:37;11.80;71.50
64468;DHT22;50853;46.836;16.820;2022-10-20T17:22:05;11.70;71.80
64468;DHT22;50853;46.836;16.820;2022-10-20T17:24:31;11.70;71.90
64468;DHT22;50853;46.836;16.820;2022-10-20T17:26:57;11.60;72.60
64468;DHT22;50853;46.836;16.820;2022-10-20T17:29:23;11.60;72.10
64468;DHT22;50853;46.836;16.820;2022-10-20T17:31:49;11.50;72.20
64468;DHT22;50853;46.836;16.820;2022-10-20T17:34:15;11.50;72.30
64468;DHT22;50853;46.836;16.820;2022-10-20T17:36:42;11.50;72.60
64468;DHT22;50853;46.836;16.820;2022-10-20T17:39:08;11.40;72.70
64468;DHT22;50853;46.836;16.820;2022-10-20T17:41:34;11.40;73.30
64468;DHT22;50853;46.836;16.820;2022-10-20T17:44:02;11.30;73.10
64468;DHT22;50853;46.836;16.820;2022-10-20T17:46:29;11.30;73.50
64468;DHT22;50853;46.836;16.820;2022-10-20T17:48:55;11.20;73.60
64468;DHT22;50853;46.836;16.820;2022-10-20T17:51:25;11.20;73.70
64468;DHT22;50853;46.836;16.820;2022-10-20T17:53:51;11.20;73.70
64468;DHT22;50853;46.836;16.820;2022-10-20T17:56:19;11.10;73.50
64468;DHT22;50853;46.836;16.820;2022-10-20T17:58:47;11.10;73.20
64468;DHT22;50853;46.836;16.820;2022-10-20T18:01:17;11.10;73.30
64468;DHT22;50853;46.836;16.820;2022-10-20T18:03:46;11.00;73.50
64468;DHT22;50853;46.836;16.820;2022-10-20T18:06:15;11.00;74.00
64468;DHT22;50853;46.836;16.820;2022-10-20T18:08:41;10.90;74.10
64468;DHT22;50853;46.836;16.820;2022-10-20T18:11:18;10.90;73.60
64468;DHT22;50853;46.836;16.820;2022-10-20T18:13:45;10.90;73.80
64468;DHT22;50853;46.836;16.820;2022-10-20T18:16:13;10.80;74.20